createdAt,value
2022-10-21T00:01:05.850Z,16.40
2022-10-21T00:03:36.054Z,16.30
2022-10-21T00:06:04.607Z,16.20
2022-10-21T00:08:33.083Z,16.20
2022-10-21T00:11:03.624Z,16.20
2022-10-21T00:13:33.720Z,16.20
2022-10-21T00:16:03.872Z,16.10
2022-10-21T00:18:34.444Z,16.10
2022-10-21T00:21:07.327Z,16.10
2022-10-21T00:23:35.854Z,16.10
2022-10-21T00:26:04.636Z,16.00
2022-10-21T00:28:33.010Z,15.90
2022-10-21T00:31:01.535Z,15.80
2022-10-21T00:33:30.523Z,15.80
2022-10-21T00:36:02.957Z,15.70
2022-10-21T00:38:33.133Z,15.60
2022-10-21T00:41:01.858Z,15.60
2022-10-21T00:43:30.745Z,15.60
2022-10-21T00:46:03.263Z,15.70
2022-10-21T00:48:35.841Z,15.70
2022-10-21T00:51:07.326Z,15.70
2022-10-21T00:53:39.740Z,15.60
2022-10-21T00:56:15.521Z,15.50
2022-10-21T00:58:47.784Z,15.50
2022-10-21T01:01:19.232Z,15.40
2022-10-21T01:03:50.517Z,15.40
2022-10-21T01:06:21.769Z,15.40
2022-10-21T01:08:53.218Z,15.50
2022-10-21T01:11:23.671Z,15.50
2022-10-21T01:14:05.730Z,15.50
2022-10-21T01:16:44.406Z,15.40
2022-10-21T01:19:50.281Z,15.20
2022-10-21T01:22:27.040Z,15.10
2022-10-21T01:25:29.254Z,14.90
2022-10-21T01:28:08.518Z,14.90
2022-10-21T01:30:44.252Z,14.90
2022-10-21T01:33:40.443Z,15.00
2022-10-21T01:36:23.108Z,15.00
2022-10-21T01:39:02.625Z,15.00
2022-10-21T01:41:39.219Z,14.90
2022-10-21T01:44:14.308Z,14.80
2022-10-21T01:46:47.305Z,14.70
2022-10-21T01:49:20.216Z,14.60
2022-10-21T01:51:49.208Z,14.50
2022-10-21T01:54:23.556Z,14.40
2022-10-21T01:56:54.004Z,14.30
2022-10-21T01:59:24.975Z,14.20
2022-10-21T02:01:56.393Z,14.30
2022-10-21T02:04:25.341Z,14.20
2022-10-21T02:06:53.788Z,14.20
2022-10-21T02:09:22.065Z,14.20
2022-10-21T02:11:53.941Z,14.30
2022-10-21T02:14:26.903Z,14.40
2022-10-21T02:16:57.168Z,14.50
2022-10-21T02:19:25.469Z,14.60
2022-10-21T02:21:55.916Z,14.60
2022-10-21T02:24:30.137Z,14.50
2022-10-21T02:26:58.441Z,14.50
2022-10-21T02:29:29.653Z,14.50
2022-10-21T02:32:13.650Z,14.40
2022-10-21T02:34:52.696Z,14.30
2022-10-21T02:37:28.536Z,14.30
2022-10-21T02:40:01.357Z,14.30
2022-10-21T02:42:34.000Z,14.20
2022-10-21T02:45:03.399Z,14.30
2022-10-21T02:47:33.066Z,14.20
2022-10-21T02:50:01.279Z,14.20
2022-10-21T02:52:29.487Z,14.20
2022-10-21T02:54:57.735Z,14.10
2022-10-21T02:57:26.926Z,14.10
2022-10-21T02:59:56.112Z,13.90
2022-10-21T03:02:24.333Z,13.80
2022-10-21T03:04:53.927Z,13.80
2022-10-21T03:07:22.553Z,13.70
2022-10-21T03:09:50.825Z,13.70
2022-10-21T03:12:18.997Z,13.60
2022-10-21T03:14:47.205Z,13.70
2022-10-21T03:17:15.352Z,13.60
2022-10-21T03:19:43.594Z,13.60
2022-10-21T03:22:13.152Z,13.50
2022-10-21T03:24:41.359Z,13.40
2022-10-21T03:27:09.694Z,13.30
2022-10-21T03:29:37.893Z,13.10
2022-10-21T03:32:07.493Z,13.00
2022-10-21T03:34:35.721Z,13.00
2022-10-21T03:37:03.927Z,13.00
2022-10-21T03:39:33.482Z,12.90
2022-10-21T03:42:01.663Z,12.90
2022-10-21T03:44:29.951Z,12.80
2022-10-21T03:46:58.107Z,12.80
2022-10-21T03:49:26.403Z,13.00
2022-10-21T03:51:54.673Z,13.00
2022-10-21T03:54:23.452Z,13.00
2022-10-21T03:56:53.215Z,13.10
2022-10-21T03:59:21.492Z,13.10
2022-10-21T04:01:49.822Z,13.20
2022-10-21T04:04:18.056Z,13.30
2022-10-21T04:06:46.564Z,13.40
2022-10-21T04:09:14.846Z,13.40
2022-10-21T04:11:43.110Z,13.40
2022-10-21T04:14:15.266Z,13.50
2022-10-21T04:16:44.060Z,13.60
2022-10-21T04:19:18.128Z,13.60
2022-10-21T04:21:46.700Z,13.60
2022-10-21T04:24:15.025Z,13.70
2022-10-21T04:26:43.445Z,13.80
2022-10-21T04:29:13.034Z,13.80
2022-10-21T04:31:41.443Z,13.80
2022-10-21T04:34:09.689Z,13.70
2022-10-21T04:36:37.912Z,13.70
2022-10-21T04:39:06.466Z,13.70
2022-10-21T04:41:34.731Z,13.70
2022-10-21T04:44:03.309Z,13.70
2022-10-21T04:46:32.943Z,13.70
2022-10-21T04:49:01.194Z,13.70
2022-10-21T04:51:29.786Z,13.70
2022-10-21T04:53:58.010Z,13.60
2022-10-21T04:56:26.405Z,13.60
2022-10-21T04:58:54.662Z,13.70
2022-10-21T05:01:23.078Z,13.80
2022-10-21T05:03:52.739Z,13.80
2022-10-21T05:06:21.001Z,13.80
2022-10-21T05:08:49.324Z,13.90
2022-10-21T05:11:17.593Z,13.80
2022-10-21T05:13:47.296Z,13.80
2022-10-21T05:16:15.607Z,13.80
2022-10-21T05:18:43.796Z,13.70
2022-10-21T05:21:13.451Z,13.70
2022-10-21T05:23:44.160Z,13.70
2022-10-21T05:26:12.361Z,13.70
2022-10-21T05:28:40.598Z,13.80
2022-10-21T05:31:08.829Z,13.80
2022-10-21T05:33:37.023Z,13.90
2022-10-21T05:36:08.680Z,14.00
2022-10-21T05:38:38.217Z,14.10
2022-10-21T05:41:06.828Z,14.10
2022-10-21T05:43:35.065Z,14.20
2022-10-21T05:46:03.369Z,14.20
2022-10-21T05:48:31.578Z,14.30
2022-10-21T05:50:59.783Z,14.30
2022-10-21T05:53:28.098Z,14.40
2022-10-21T05:55:58.755Z,14.40
2022-10-21T05:58:27.375Z,14.50
2022-10-21T06:00:56.627Z,14.60
2022-10-21T06:03:25.984Z,14.60
2022-10-21T06:05:54.404Z,14.60
2022-10-21T06:08:22.621Z,14.70
2022-10-21T06:10:50.793Z,14.60
2022-10-21T06:13:20.353Z,14.70
2022-10-21T06:15:50.320Z,14.60
2022-10-21T06:18:19.360Z,14.60
2022-10-21T06:20:47.572Z,14.60
2022-10-21T06:23:16.453Z,14.50
2022-10-21T06:25:45.169Z,14.40
2022-10-21T06:28:13.309Z,14.40
2022-10-21T06:30:42.855Z,14.40
2022-10-21T06:33:11.003Z,14.30
2022-10-21T06:35:39.209Z,14.20
2022-10-21T06:38:07.459Z,14.20
2022-10-21T06:40:35.924Z,14.20
2022-10-21T06:43:04.335Z,14.30
2022-10-21T06:45:32.693Z,14.40
2022-10-21T06:48:02.448Z,14.40
2022-10-21T06:50:31.192Z,14.40
2022-10-21T06:52:59.603Z,14.40
2022-10-21T06:55:28.549Z,14.50
2022-10-21T06:57:57.177Z,14.50
2022-10-21T07:00:25.654Z,14.60
2022-10-21T07:02:53.963Z,14.70
2022-10-21T07:05:23.888Z,14.70
2022-10-21T07:07:52.545Z,14.80
2022-10-21T07:10:20.892Z,14.80
2022-10-21T07:12:49.264Z,14.90
2022-10-21T07:15:17.696Z,15.00
2022-10-21T07:17:45.967Z,15.10
2022-10-21T07:20:14.137Z,15.10
2022-10-21T07:22:46.122Z,15.20
2022-10-21T07:25:14.538Z,15.20
2022-10-21T07:27:45.982Z,15.30
2022-10-21T07:30:18.947Z,15.30
2022-10-21T07:32:47.164Z,15.30
2022-10-21T07:35:15.603Z,15.40
2022-10-21T07:37:47.676Z,15.50
2022-10-21T07:40:16.144Z,15.60
2022-10-21T07:42:44.367Z,15.70
2022-10-21T07:45:12.766Z,15.80
2022-10-21T07:47:41.402Z,15.90
2022-10-21T07:50:10.310Z,16.00
2022-10-21T07:52:51.816Z,16.00
2022-10-21T07:55:30.704Z,16.10
2022-10-21T07:57:59.656Z,16.10
2022-10-21T08:00:30.262Z,16.20
2022-10-21T08:02:58.624Z,16.20
2022-10-21T08:05:27.150Z,16.20
2022-10-21T08:07:55.738Z,16.30
2022-10-21T08:10:24.066Z,16.30
2022-10-21T08:12:53.659Z,16.40
2022-10-21T08:15:21.887Z,16.40
2022-10-21T08:17:50.086Z,16.40
2022-10-21T08:20:18.600Z,16.50
2022-10-21T08:22:49.091Z,16.60
2022-10-21T08:25:17.557Z,16.60
2022-10-21T08:27:47.919Z,16.70
2022-10-21T08:30:17.716Z,16.80
2022-10-21T08:32:48.659Z,16.80
2022-10-21T08:35:16.932Z,16.80
2022-10-21T08:37:48.946Z,16.90
2022-10-21T08:40:18.138Z,16.90
2022-10-21T08:42:47.413Z,17.00
2022-10-21T08:45:26.995Z,16.90
2022-10-21T08:48:00.710Z,17.00
2022-10-21T08:50:33.711Z,17.00
2022-10-21T08:53:12.001Z,17.20
2022-10-21T08:55:42.816Z,17.40
2022-10-21T08:58:16.314Z,17.50
2022-10-21T09:00:49.618Z,17.50
2022-10-21T09:03:24.776Z,17.50
2022-10-21T09:06:16.748Z,17.50
2022-10-21T09:08:57.342Z,17.50
2022-10-21T09:11:34.334Z,17.70
2022-10-21T09:14:47.368Z,18.20
2022-10-21T09:17:28.345Z,18.70
2022-10-21T09:20:03.723Z,19.00
2022-10-21T09:22:46.076Z,19.20
2022-10-21T09:25:22.916Z,19.20
2022-10-21T09:27:56.327Z,19.00
2022-10-21T09:30:25.946Z,18.90
2022-10-21T09:32:59.578Z,18.90
2022-10-21T09:35:34.415Z,18.80
2022-10-21T09:38:07.794Z,18.80
2022-10-21T09:40:36.206Z,18.90
2022-10-21T09:43:05.011Z,19.10
2022-10-21T09:45:36.286Z,19.10
2022-10-21T09:48:12.825Z,19.20
2022-10-21T09:50:41.515Z,19.20
2022-10-21T09:53:16.321Z,19.20
2022-10-21T09:55:47.006Z,19.10
2022-10-21T09:58:26.929Z,19.20
2022-10-21T10:00:56.060Z,19.20
2022-10-21T10:03:33.474Z,19.30
2022-10-21T10:06:03.122Z,19.20
2022-10-21T10:08:36.783Z,19.30
2022-10-21T10:11:18.122Z,19.50
2022-10-21T10:13:51.289Z,19.70
2022-10-21T10:16:23.821Z,19.80
2022-10-21T10:19:01.043Z,20.10
2022-10-21T10:21:32.348Z,20.30
2022-10-21T10:24:03.586Z,20.30
2022-10-21T10:26:34.180Z,20.40
2022-10-21T10:29:09.667Z,20.30
2022-10-21T10:31:39.030Z,20.40
2022-10-21T10:34:21.135Z,20.70
2022-10-21T10:36:50.623Z,20.70
2022-10-21T10:39:28.129Z,20.80
2022-10-21T10:41:59.563Z,21.10
2022-10-21T10:44:33.602Z,21.00
2022-10-21T10:47:04.325Z,20.90
2022-10-21T10:49:40.704Z,20.80
2022-10-21T10:52:21.535Z,20.70
2022-10-21T10:55:16.173Z,20.60
2022-10-21T10:58:05.923Z,20.50
2022-10-21T11:00:41.873Z,20.30
2022-10-21T11:03:15.735Z,20.20
2022-10-21T11:05:47.693Z,20.20
2022-10-21T11:08:19.275Z,20.40
2022-10-21T11:10:51.527Z,20.40
2022-10-21T11:13:21.813Z,20.20
2022-10-21T11:16:02.987Z,20.00
2022-10-21T11:18:37.086Z,20.10
2022-10-21T11:21:20.783Z,20.20
2022-10-21T11:24:05.590Z,20.30
2022-10-21T11:26:46.565Z,20.70
2022-10-21T11:29:29.287Z,21.30
2022-10-21T11:32:11.747Z,21.80
2022-10-21T11:35:12.433Z,22.10
2022-10-21T11:37:53.013Z,22.20
2022-10-21T11:40:32.111Z,22.10
2022-10-21T11:43:13.487Z,21.80
2022-10-21T11:45:53.209Z,21.80
2022-10-21T11:48:37.332Z,21.80
2022-10-21T11:51:19.128Z,21.80
2022-10-21T11:54:14.157Z,21.90
2022-10-21T11:56:52.232Z,22.10
2022-10-21T11:59:50.169Z,22.10
2022-10-21T12:02:26.428Z,22.00
2022-10-21T12:05:08.447Z,22.00
2022-10-21T12:07:52.223Z,21.90
2022-10-21T12:10:31.075Z,22.10
2022-10-21T12:13:05.363Z,22.20
2022-10-21T12:15:41.351Z,22.50
2022-10-21T12:18:16.573Z,22.60
2022-10-21T12:20:48.002Z,22.90
2022-10-21T12:23:19.432Z,23.00
2022-10-21T12:25:57.974Z,23.10
2022-10-21T12:28:33.590Z,23.20
2022-10-21T12:31:14.992Z,22.90
2022-10-21T12:33:45.060Z,22.80
2022-10-21T12:36:17.932Z,23.10
2022-10-21T12:38:49.471Z,23.10
2022-10-21T12:41:29.847Z,23.00
2022-10-21T12:44:05.934Z,22.90
2022-10-21T12:46:40.118Z,22.90
2022-10-21T12:49:21.513Z,23.10
2022-10-21T12:51:52.471Z,23.00
2022-10-21T12:54:26.615Z,22.70
2022-10-21T12:57:03.797Z,22.50
2022-10-21T12:59:35.210Z,22.60
2022-10-21T13:02:28.320Z,22.70
2022-10-21T13:04:59.168Z,23.00
2022-10-21T13:07:37.329Z,23.10
2022-10-21T13:10:27.747Z,22.90
2022-10-21T13:13:41.998Z,23.10
2022-10-21T13:16:30.176Z,23.00
2022-10-21T13:19:03.684Z,23.20
2022-10-21T13:21:36.564Z,23.30
2022-10-21T13:24:16.238Z,23.30
2022-10-21T13:26:50.948Z,23.70
2022-10-21T13:29:44.708Z,23.70
2022-10-21T13:32:25.717Z,23.40
2022-10-21T13:35:36.851Z,23.20
2022-10-21T13:38:20.521Z,23.10
2022-10-21T13:40:51.830Z,23.30
2022-10-21T13:43:28.579Z,23.00
2022-10-21T13:46:04.719Z,22.90
2022-10-21T13:48:38.258Z,23.00
2022-10-21T13:51:21.484Z,23.00
2022-10-21T13:53:53.889Z,23.00
2022-10-21T13:56:24.818Z,23.20
2022-10-21T13:58:53.750Z,23.20
2022-10-21T14:01:25.477Z,23.20
2022-10-21T14:03:54.899Z,23.30
2022-10-21T14:06:32.289Z,23.10
2022-10-21T14:09:01.493Z,22.90
2022-10-21T14:11:34.926Z,22.80
2022-10-21T14:14:09.651Z,22.90
2022-10-21T14:16:42.064Z,22.80
2022-10-21T14:19:16.048Z,22.80
2022-10-21T14:21:48.780Z,22.70
2022-10-21T14:24:27.934Z,22.70
2022-10-21T14:26:57.077Z,22.90
2022-10-21T14:29:28.041Z,22.90
2022-10-21T14:31:56.617Z,22.80
2022-10-21T14:34:25.701Z,22.80
2022-10-21T14:37:09.519Z,22.60
2022-10-21T14:39:42.305Z,22.40
2022-10-21T14:42:17.030Z,22.30
2022-10-21T14:44:46.370Z,22.00
2022-10-21T14:47:20.268Z,21.80
2022-10-21T14:49:50.286Z,21.60
2022-10-21T14:52:23.102Z,21.40
2022-10-21T14:54:56.858Z,21.20
2022-10-21T14:57:37.874Z,21.10
2022-10-21T15:00:10.187Z,20.90
2022-10-21T15:02:39.620Z,20.80
2022-10-21T15:05:28.936Z,20.70
2022-10-21T15:08:17.155Z,20.70
2022-10-21T15:10:45.547Z,20.60
2022-10-21T15:13:17.845Z,20.60
2022-10-21T15:15:53.238Z,20.60
2022-10-21T15:18:24.894Z,20.60
2022-10-21T15:20:55.552Z,20.60
2022-10-21T15:23:28.682Z,20.50
2022-10-21T15:26:00.839Z,20.40
2022-10-21T15:28:32.120Z,20.40
2022-10-21T15:31:02.442Z,20.40
2022-10-21T15:33:31.528Z,20.30
2022-10-21T15:36:08.669Z,20.20
2022-10-21T15:38:44.659Z,20.20
2022-10-21T15:41:15.692Z,20.10
2022-10-21T15:43:55.370Z,20.10
2022-10-21T15:46:24.740Z,20.00
2022-10-21T15:48:53.055Z,20.00
2022-10-21T15:51:21.689Z,19.90
2022-10-21T15:53:54.149Z,19.80
2022-10-21T15:56:22.449Z,19.70
2022-10-21T15:58:50.721Z,19.60
2022-10-21T16:01:19.716Z,19.60
2022-10-21T16:03:47.977Z,19.60
2022-10-21T16:06:18.810Z,19.60
2022-10-21T16:08:47.523Z,19.60
2022-10-21T16:11:25.813Z,19.50
2022-10-21T16:14:03.406Z,19.50
2022-10-21T16:16:31.782Z,19.40
2022-10-21T16:19:00.104Z,19.30
2022-10-21T16:21:28.499Z,19.20
2022-10-21T16:23:58.545Z,19.20
2022-10-21T16:26:29.552Z,19.10
2022-10-21T16:28:59.034Z,19.00
2022-10-21T16:31:30.735Z,19.00
2022-10-21T16:33:58.971Z,18.90
2022-10-21T16:36:31.181Z,18.80
2022-10-21T16:38:59.647Z,18.80
2022-10-21T16:41:29.561Z,18.70
2022-10-21T16:43:57.847Z,18.60
2022-10-21T16:46:30.137Z,18.60
2022-10-21T16:49:00.030Z,18.60
2022-10-21T16:51:30.638Z,18.60
2022-10-21T16:53:59.360Z,18.50
2022-10-21T16:56:29.000Z,18.50
2022-10-21T16:58:57.294Z,18.40
2022-10-21T17:01:26.345Z,18.30
2022-10-21T17:03:54.706Z,18.30
2022-10-21T17:06:25.785Z,18.30
2022-10-21T17:08:57.285Z,18.10
2022-10-21T17:11:28.990Z,18.10
2022-10-21T17:13:58.731Z,18.10
2022-10-21T17:16:27.102Z,18.00
2022-10-21T17:18:55.690Z,17.90
2022-10-21T17:21:26.323Z,17.80
2022-10-21T17:23:55.620Z,17.70
2022-10-21T17:26:24.038Z,17.60
2022-10-21T17:28:52.368Z,17.50
2022-10-21T17:31:26.410Z,17.40
2022-10-21T17:33:56.612Z,17.30
2022-10-21T17:36:24.958Z,17.30
2022-10-21T17:38:53.313Z,17.30
2022-10-21T17:41:21.601Z,17.30
2022-10-21T17:43:52.435Z,17.30
2022-10-21T17:46:22.421Z,17.30
2022-10-21T17:48:52.866Z,17.20
2022-10-21T17:51:22.042Z,17.20
2022-10-21T17:53:50.976Z,17.20
2022-10-21T17:56:19.836Z,17.30
2022-10-21T17:58:51.958Z,17.20
2022-10-21T18:01:20.574Z,17.20
2022-10-21T18:03:49.162Z,17.20
2022-10-21T18:06:19.363Z,17.20
2022-10-21T18:08:47.741Z,17.20
2022-10-21T18:11:19.573Z,17.30
2022-10-21T18:13:53.433Z,17.30
2022-10-21T18:16:24.397Z,17.20
2022-10-21T18:18:56.119Z,17.20
2022-10-21T18:21:28.414Z,17.20
2022-10-21T18:23:56.876Z,17.10
2022-10-21T18:26:27.005Z,17.10
2022-10-21T18:28:57.400Z,17.10
2022-10-21T18:31:28.181Z,17.10
2022-10-21T18:33:58.379Z,17.10
2022-10-21T18:36:28.574Z,17.10
2022-10-21T18:38:58.412Z,17.10
2022-10-21T18:41:26.841Z,17.10
2022-10-21T18:43:56.704Z,17.10
2022-10-21T18:46:25.385Z,17.10
2022-10-21T18:48:53.688Z,17.10
2022-10-21T18:51:23.994Z,17.10
2022-10-21T18:53:53.743Z,17.00
2022-10-21T18:56:24.158Z,17.00
2022-10-21T18:58:56.385Z,16.90
2022-10-21T19:01:26.488Z,16.80
2022-10-21T19:03:56.184Z,16.90
2022-10-21T19:06:37.099Z,16.90
2022-10-21T19:09:10.222Z,16.80
2022-10-21T19:11:38.620Z,16.80
2022-10-21T19:14:09.761Z,16.90
2022-10-21T19:16:41.383Z,17.00
2022-10-21T19:19:09.983Z,17.00
2022-10-21T19:21:38.256Z,16.90
2022-10-21T19:24:08.496Z,16.80
2022-10-21T19:26:40.373Z,16.80
2022-10-21T19:29:13.422Z,16.80
2022-10-21T19:31:42.433Z,16.80
2022-10-21T19:34:12.564Z,16.80
2022-10-21T19:36:40.943Z,16.80
2022-10-21T19:39:13.518Z,16.80
2022-10-21T19:41:42.693Z,16.70
2022-10-21T19:44:10.978Z,16.70
2022-10-21T19:46:39.424Z,16.70
2022-10-21T19:49:10.046Z,16.60
2022-10-21T19:51:41.322Z,16.60
2022-10-21T19:54:10.349Z,16.60
2022-10-21T19:56:40.022Z,16.50
2022-10-21T19:59:09.864Z,16.50
2022-10-21T20:01:38.456Z,16.60
2022-10-21T20:04:07.013Z,16.60
2022-10-21T20:06:36.818Z,16.60
2022-10-21T20:09:08.217Z,16.70
2022-10-21T20:11:37.113Z,16.80
2022-10-21T20:14:07.073Z,16.80
2022-10-21T20:16:38.702Z,16.70
2022-10-21T20:19:08.120Z,16.70
2022-10-21T20:21:38.328Z,16.70
2022-10-21T20:24:07.216Z,16.70
2022-10-21T20:26:35.804Z,16.70
2022-10-21T20:29:04.242Z,16.70
2022-10-21T20:31:33.825Z,16.60
2022-10-21T20:34:02.138Z,16.50
2022-10-21T20:36:32.556Z,16.50
2022-10-21T20:39:03.077Z,16.40
2022-10-21T20:41:35.941Z,16.50
2022-10-21T20:44:05.765Z,16.50
2022-10-21T20:46:36.443Z,16.50
2022-10-21T20:49:05.830Z,16.50
2022-10-21T20:51:38.730Z,16.50
2022-10-21T20:54:08.806Z,16.50
2022-10-21T20:56:38.649Z,16.50
2022-10-21T20:59:07.838Z,16.50
2022-10-21T21:01:41.741Z,16.40
2022-10-21T21:04:12.658Z,16.50
2022-10-21T21:06:44.388Z,16.50
2022-10-21T21:12:03.570Z,16.30
2022-10-21T21:14:32.675Z,16.30
2022-10-21T21:17:02.439Z,16.20
2022-10-21T21:19:30.888Z,16.10
2022-10-21T21:21:59.250Z,16.10
2022-10-21T21:24:27.571Z,16.10
2022-10-21T21:26:55.884Z,16.00
2022-10-21T21:29:24.373Z,15.90
2022-10-21T21:31:52.645Z,15.90
2022-10-21T21:34:22.399Z,15.90
2022-10-21T21:36:50.640Z,16.00
2022-10-21T21:39:19.011Z,15.90
2022-10-21T21:41:47.311Z,15.90
2022-10-21T21:44:15.659Z,15.90
2022-10-21T21:46:43.919Z,15.80
2022-10-21T21:49:12.173Z,15.70
2022-10-21T21:51:41.757Z,15.60
2022-10-21T21:54:10.031Z,15.60
2022-10-21T21:56:38.373Z,15.60
2022-10-21T21:59:06.648Z,15.60
2022-10-21T22:01:35.191Z,15.50
2022-10-21T22:04:03.933Z,15.60
2022-10-21T22:06:34.973Z,15.60
2022-10-21T22:09:09.913Z,15.60
2022-10-21T22:11:38.944Z,15.70
2022-10-21T22:14:07.227Z,15.70
2022-10-21T22:16:35.770Z,15.70
2022-10-21T22:19:04.027Z,15.70
2022-10-21T22:21:33.106Z,15.60
2022-10-21T22:24:01.415Z,15.60
2022-10-21T22:26:31.134Z,15.60
2022-10-21T22:28:59.492Z,15.70
2022-10-21T22:31:30.531Z,15.70
2022-10-21T22:34:00.604Z,15.70
2022-10-21T22:36:29.190Z,15.70
2022-10-21T22:39:00.517Z,15.60
2022-10-21T22:41:30.225Z,15.60
2022-10-21T22:43:58.559Z,15.60
2022-10-21T22:46:34.182Z,15.50
2022-10-21T22:49:03.471Z,15.50
2022-10-21T22:51:32.151Z,15.50
2022-10-21T22:54:01.304Z,15.60
2022-10-21T22:56:32.074Z,15.60
2022-10-21T22:59:00.380Z,15.60
2022-10-21T23:01:30.735Z,15.60
2022-10-21T23:04:02.662Z,15.60
2022-10-21T23:06:31.553Z,15.60
2022-10-21T23:08:59.919Z,15.60
2022-10-21T23:11:28.253Z,15.50
2022-10-21T23:14:03.465Z,15.50
2022-10-21T23:16:36.079Z,15.50
2022-10-21T23:19:04.650Z,15.50
2022-10-21T23:21:32.975Z,15.50
2022-10-21T23:24:01.246Z,15.60
2022-10-21T23:26:29.534Z,15.60
2022-10-21T23:29:01.638Z,15.60
2022-10-21T23:31:30.098Z,15.50
2022-10-21T23:33:58.403Z,15.30
2022-10-21T23:36:26.807Z,15.20
2022-10-21T23:38:57.774Z,15.20
2022-10-21T23:41:26.067Z,15.20
2022-10-21T23:43:54.434Z,15.20
2022-10-21T23:46:24.292Z,15.30
2022-10-21T23:48:52.588Z,15.20
2022-10-21T23:51:20.908Z,15.20
2022-10-21T23:53:49.142Z,15.30
2022-10-21T23:56:17.823Z,15.30
2022-10-21T23:58:48.242Z,15.40
